Time;durP1;ratioP1;P1;durP2;ratioP2;P2;SDS_P1;SDS_P2;PMS_P1;PMS_P2;Temp;Humidity;BMP_temperature;BMP_pressure;BME280_temperature;BME280_humidity;BME280_pressure;Samples;Min_cycle;Max_cycle;Signal;HPM_P1;HPM_P2
2022/12/28 00:00:54;;;;;;;19.57;10.50;;;5.20;99.90;;;;;;5009341;28;20045;-76
2022/12/28 00:03:20;;;;;;;27.90;25.17;;;5.20;99.90;;;;;;5007182;28;20050;-75
2022/12/28 00:05:45;;;;;;;20.17;9.23;;;5.20;99.90;;;;;;5009978;28;20151;-76
2022/12/28 00:08:11;;;;;;;61.30;56.67;;;5.20;99.90;;;;;;4992514;28;20064;-76
2022/12/28 00:10:37;;;;;;;20.00;8.70;;;5.30;99.90;;;;;;4998234;28;20065;-76
2022/12/28 00:13:02;;;;;;;52.50;48.03;;;5.20;99.90;;;;;;5008793;28;20057;-76
2022/12/28 00:15:28;;;;;;;43.50;40.23;;;5.20;99.90;;;;;;5008676;28;20042;-76
2022/12/28 00:17:56;;;;;;;142.60;133.07;;;5.10;99.90;;;;;;4991982;28;20175;-74
2022/12/28 00:20:21;;;;;;;20.03;13.77;;;5.20;99.90;;;;;;5009278;28;20050;-75
2022/12/28 00:22:47;;;;;;;22.57;20.50;;;5.20;99.90;;;;;;5008479;28;20492;-74
2022/12/28 00:25:13;;;;;;;22.27;9.60;;;5.20;99.90;;;;;;5008900;28;20062;-74
2022/12/28 00:27:38;;;;;;;103.67;96.47;;;5.20;99.90;;;;;;4992092;28;20073;-74
2022/12/28 00:30:05;;;;;;;63.23;58.70;;;5.20;99.90;;;;;;5010669;28;20129;-74
2022/12/28 00:32:30;;;;;;;37.13;34.33;;;5.30;99.90;;;;;;5011468;28;20053;-75
2022/12/28 00:34:56;;;;;;;113.33;105.87;;;5.30;99.90;;;;;;5013472;28;20082;-74
2022/12/28 00:37:21;;;;;;;20.50;17.97;;;5.30;99.90;;;;;;4996265;28;20108;-75
2022/12/28 00:39:47;;;;;;;34.27;30.80;;;5.30;99.90;;;;;;5012177;28;20125;-76
2022/12/28 00:42:13;;;;;;;94.60;87.63;;;5.20;99.90;;;;;;5011961;28;20561;-76
2022/12/28 00:44:39;;;;;;;25.13;22.47;;;5.30;99.90;;;;;;5012324;28;20056;-76
2022/12/28 00:47:05;;;;;;;20.10;17.33;;;5.20;99.90;;;;;;4995818;28;20061;-76
2022/12/28 00:49:30;;;;;;;137.00;126.63;;;5.30;99.90;;;;;;5011559;28;20053;-75
2022/12/28 00:51:56;;;;;;;40.17;36.83;;;5.30;99.90;;;;;;4995646;28;20061;-76
2022/12/28 00:54:22;;;;;;;36.57;33.43;;;5.30;99.90;;;;;;5012355;28;20054;-76
2022/12/28 00:56:47;;;;;;;56.43;52.20;;;5.40;99.90;;;;;;4997979;28;20103;-76
2022/12/28 00:59:13;;;;;;;39.33;36.23;;;5.40;99.90;;;;;;5013726;28;20050;-76
2022/12/28 01:01:39;;;;;;;30.47;27.47;;;5.30;99.90;;;;;;5023346;28;20061;-76
2022/12/28 01:04:05;;;;;;;43.77;39.43;;;5.40;99.90;;;;;;5011801;28;20056;-76
2022/12/28 01:06:30;;;;;;;18.27;12.47;;;5.40;99.90;;;;;;4998255;28;20056;-77
2022/12/28 01:08:56;;;;;;;284.43;262.13;;;5.40;99.90;;;;;;5009596;28;20054;-76
2022/12/28 01:11:28;;;;;;;75.30;70.40;;;5.50;99.90;;;;;;5013239;28;20050;-76
2022/12/28 01:13:56;;;;;;;18.90;15.13;;;5.50;99.90;;;;;;4978533;28;20085;-76
2022/12/28 01:16:26;;;;;;;65.47;61.10;;;5.50;99.90;;;;;;4980909;28;20359;-77
2022/12/28 01:18:55;;;;;;;51.40;47.53;;;5.60;99.90;;;;;;4987076;28;20041;-76
2022/12/28 01:21:23;;;;;;;33.13;30.00;;;5.50;99.90;;;;;;4991604;28;20493;-76
2022/12/28 01:23:51;;;;;;;21.20;18.10;;;5.50;99.90;;;;;;4990199;28;20074;-76
2022/12/28 01:26:17;;;;;;;25.47;22.97;;;5.60;99.90;;;;;;4980554;28;20046;-76
2022/12/28 01:28:42;;;;;;;232.73;218.00;;;5.60;99.90;;;;;;4986933;28;20461;-76
2022/12/28 01:31:11;;;;;;;21.70;19.77;;;5.60;99.90;;;;;;4993089;28;20097;-76
2022/12/28 01:33:37;;;;;;;91.57;85.37;;;5.60;99.90;;;;;;4990299;28;20395;-76
2022/12/28 01:36:12;;;;;;;33.60;30.50;;;5.60;99.90;;;;;;4991639;28;20054;-76
2022/12/28 01:38:37;;;;;;;55.10;51.00;;;5.60;99.90;;;;;;4985945;28;20038;-75
2022/12/28 01:41:07;;;;;;;19.43;13.67;;;5.60;99.90;;;;;;4992518;28;20049;-76
2022/12/28 01:43:46;;;;;;;102.27;93.37;;;5.60;99.90;;;;;;4991002;28;20038;-76
2022/12/28 01:46:18;;;;;;;31.33;28.67;;;5.70;99.90;;;;;;4984038;28;20507;-76
2022/12/28 01:48:54;;;;;;;68.40;63.70;;;5.70;99.90;;;;;;4986188;28;20122;-76
2022/12/28 01:51:21;;;;;;;149.97;139.60;;;5.70;99.90;;;;;;4992303;28;20046;-76
2022/12/28 01:53:48;;;;;;;91.10;84.23;;;5.70;99.90;;;;;;4992124;28;20137;-76
2022/12/28 01:56:14;;;;;;;58.37;54.53;;;5.70;99.90;;;;;;4983547;28;20062;-76
2022/12/28 01:58:40;;;;;;;26.83;23.10;;;5.70;99.90;;;;;;4982950;28;20531;-78
2022/12/28 02:01:06;;;;;;;18.43;15.93;;;5.80;99.90;;;;;;4991436;28;20896;-76
2022/12/28 02:03:34;;;;;;;60.77;56.13;;;5.70;99.90;;;;;;4991827;28;20050;-75
2022/12/28 02:06:05;;;;;;;40.47;36.60;;;5.60;99.90;;;;;;4991817;28;20042;-76
2022/12/28 02:09:00;;;;;;;23.25;20.58;;;5.70;99.90;;;;;;4960196;28;20046;-77
2022/12/28 02:11:25;;;;;;;33.60;30.17;;;5.60;99.90;;;;;;4991437;28;20058;-76
2022/12/28 02:13:52;;;;;;;29.67;26.70;;;5.70;99.90;;;;;;4990700;28;20137;-76
2022/12/28 02:16:18;;;;;;;23.40;16.57;;;5.70;99.90;;;;;;4981621;28;20093;-75
2022/12/28 02:18:46;;;;;;;42.30;38.30;;;5.40;99.90;;;;;;4985952;28;20081;-76
2022/12/28 02:21:37;;;;;;;77.30;71.87;;;5.50;99.90;;;;;;4990552;28;20058;-75
2022/12/28 02:24:44;;;;;;;42.05;38.42;;;5.50;99.90;;;;;;4989565;28;20050;-75
2022/12/28 02:27:34;;;;;;;38.07;34.37;;;5.50;99.90;;;;;;4915822;28;20039;-75
2022/12/28 02:30:10;;;;;;;69.53;63.83;;;5.50;99.90;;;;;;5004670;28;20258;-75
2022/12/28 02:32:50;;;;;;;88.60;81.63;;;5.50;99.90;;;;;;5009242;28;20034;-75
2022/12/28 02:35:21;;;;;;;41.10;36.75;;;5.50;99.90;;;;;;4994742;28;20113;-75
2022/12/28 02:38:03;;;;;;;70.47;65.10;;;5.50;99.90;;;;;;4978010;28;20065;-77
2022/12/28 02:40:38;;;;;;;137.93;128.30;;;5.60;99.90;;;;;;5010243;28;20563;-75
2022/12/28 02:43:04;;;;;;;139.07;130.03;;;5.60;99.90;;;;;;5010343;28;20559;-75
2022/12/28 02:51:20;;;;;;;36.23;30.70;;;5.60;99.90;;;;;;5011231;28;20064;-75
2022/12/28 02:53:58;;;;;;;34.50;29.67;;;5.50;99.90;;;;;;5009713;28;20416;-75
2022/12/28 02:56:53;;;;;;;49.00;44.57;;;5.50;99.90;;;;;;4998624;28;20388;-75
2022/12/28 03:00:09;;;;;;;60.23;54.83;;;5.60;99.90;;;;;;5006377;28;20081;-75
2022/12/28 03:02:42;;;;;;;34.50;29.50;;;5.60;99.90;;;;;;4986785;28;20865;-75
2022/12/28 03:08:13;;;;;;;31.40;20.00;;;5.70;99.90;;;;;;5010677;28;20396;-75
2022/12/28 03:08:19;;;;;;;67.60;62.25;;;5.70;99.90;;;;;;4994055;28;20129;-76
2022/12/28 03:10:58;;;;;;;46.93;42.63;;;5.70;99.90;;;;;;4998698;28;20119;-75
2022/12/28 03:13:43;;;;;;;29.27;22.57;;;5.70;99.90;;;;;;5008801;28;20097;-76
2022/12/28 03:16:17;;;;;;;39.20;35.13;;;5.70;99.90;;;;;;5002485;28;20057;-76
2022/12/28 03:32:52;;;;;;;31.37;28.33;;;5.90;99.90;;;;;;5009349;28;20060;-76
2022/12/28 03:35:19;;;;;;;66.17;60.93;;;6.00;99.90;;;;;;5008039;28;20044;-76
2022/12/28 03:37:52;;;;;;;56.77;52.20;;;6.00;99.90;;;;;;4994694;28;20437;-75
2022/12/28 03:40:21;;;;;;;83.63;77.60;;;6.00;99.90;;;;;;4992521;28;20121;-75
2022/12/28 03:45:41;;;;;;;33.13;30.07;;;6.10;99.90;;;;;;5008985;28;20054;-75
2022/12/28 03:48:07;;;;;;;59.63;54.83;;;6.00;99.90;;;;;;4997439;28;20069;-75
2022/12/28 03:50:41;;;;;;;26.00;21.83;;;5.90;99.90;;;;;;5009860;28;20046;-75
2022/12/28 03:53:08;;;;;;;41.03;37.67;;;6.10;99.90;;;;;;5009179;28;20496;-75
2022/12/28 03:55:36;;;;;;;44.83;41.30;;;6.10;99.90;;;;;;5008848;28;20042;-75
2022/12/28 03:58:03;;;;;;;71.60;66.77;;;6.00;99.90;;;;;;4991858;28;20050;-77
2022/12/28 04:00:29;;;;;;;35.13;31.83;;;6.10;99.90;;;;;;5009803;28;20132;-75
2022/12/28 04:02:55;;;;;;;88.07;82.47;;;6.10;99.90;;;;;;4984151;28;20141;-76
2022/12/28 04:05:21;;;;;;;180.57;166.13;;;6.20;99.90;;;;;;4989553;28;20050;-74
2022/12/28 04:07:47;;;;;;;81.73;76.33;;;6.20;99.90;;;;;;4956109;28;20031;-76
2022/12/28 04:10:12;;;;;;;28.97;26.00;;;6.20;99.90;;;;;;4989535;28;20050;-75
2022/12/28 04:12:38;;;;;;;80.47;75.00;;;6.20;99.90;;;;;;4976681;28;20086;-74
2022/12/28 04:15:05;;;;;;;27.83;25.03;;;6.20;99.90;;;;;;5009317;28;20053;-74
2022/12/28 04:17:30;;;;;;;39.93;36.63;;;6.20;99.90;;;;;;4993337;28;20077;-75
2022/12/28 04:19:56;;;;;;;219.13;199.70;;;6.30;99.90;;;;;;4999358;28;20068;-75
2022/12/28 04:22:21;;;;;;;48.50;44.53;;;6.20;99.90;;;;;;4992024;28;20132;-75
2022/12/28 04:24:47;;;;;;;36.73;33.33;;;6.30;99.90;;;;;;5009734;28;20081;-75
2022/12/28 04:27:13;;;;;;;74.23;69.00;;;6.20;99.90;;;;;;4993181;28;20393;-75
2022/12/28 04:29:38;;;;;;;27.00;24.40;;;6.30;99.90;;;;;;5008299;28;20050;-74
2022/12/28 04:32:04;;;;;;;45.37;42.07;;;6.20;99.90;;;;;;5009337;28;20050;-74
2022/12/28 04:34:30;;;;;;;35.70;32.63;;;6.30;99.90;;;;;;5008830;28;20054;-75
2022/12/28 04:36:56;;;;;;;42.03;38.50;;;6.40;99.90;;;;;;4993388;28;20212;-75
2022/12/28 04:39:22;;;;;;;33.53;30.63;;;6.40;99.90;;;;;;5009532;28;20125;-75
2022/12/28 04:41:47;;;;;;;77.63;72.27;;;6.40;99.90;;;;;;4989515;28;20064;-75
2022/12/28 04:44:13;;;;;;;32.87;29.87;;;6.40;99.90;;;;;;5004943;28;20096;-76
2022/12/28 04:46:39;;;;;;;29.57;26.67;;;6.40;99.90;;;;;;4993914;28;20038;-75
2022/12/28 04:49:04;;;;;;;42.13;38.60;;;6.40;99.90;;;;;;5004426;28;20049;-74
2022/12/28 04:51:30;;;;;;;40.53;37.17;;;6.50;99.90;;;;;;5009245;28;20402;-75
2022/12/28 04:53:57;;;;;;;35.97;32.60;;;6.40;99.90;;;;;;5008694;28;20192;-75
2022/12/28 04:56:24;;;;;;;51.80;48.10;;;6.40;99.90;;;;;;4996861;28;20046;-75
2022/12/28 04:58:59;;;;;;;39.07;35.40;;;6.40;99.90;;;;;;5003775;28;20081;-75
2022/12/28 05:01:25;;;;;;;56.77;52.43;;;6.50;99.90;;;;;;5007195;28;20050;-74
2022/12/28 05:03:52;;;;;;;84.47;78.80;;;6.50;99.90;;;;;;5004477;28;20549;-75
2022/12/28 05:06:23;;;;;;;62.13;57.30;;;6.60;99.90;;;;;;4996964;28;20057;-77
2022/12/28 05:08:49;;;;;;;68.00;63.13;;;6.60;99.90;;;;;;5004029;28;20385;-75
2022/12/28 05:11:20;;;;;;;48.60;44.63;;;6.60;99.90;;;;;;5009186;28;20523;-75
2022/12/28 05:13:46;;;;;;;93.80;87.35;;;6.70;99.90;;;;;;5007901;28;20173;-75
2022/12/28 05:16:14;;;;;;;51.13;46.80;;;6.70;99.90;;;;;;5000357;28;20132;-77
2022/12/28 05:18:40;;;;;;;105.60;98.07;;;6.80;99.90;;;;;;5003596;28;20058;-76
2022/12/28 05:21:15;;;;;;;60.87;55.97;;;6.80;99.90;;;;;;5011491;28;20041;-75
2022/12/28 05:23:41;;;;;;;51.70;47.50;;;6.70;99.90;;;;;;5009745;28;20038;-75
2022/12/28 05:26:11;;;;;;;39.50;35.67;;;6.80;99.90;;;;;;5006115;28;20365;-76
2022/12/28 05:28:37;;;;;;;151.30;140.03;;;6.80;99.90;;;;;;5001971;28;20049;-75
2022/12/28 05:31:05;;;;;;;36.77;31.73;;;6.90;99.90;;;;;;5011478;28;20046;-76
2022/12/28 05:33:32;;;;;;;62.93;57.87;;;6.90;99.90;;;;;;5009218;28;20034;-76
2022/12/28 05:36:03;;;;;;;64.40;58.97;;;7.10;99.90;;;;;;5011013;28;20049;-75
2022/12/28 05:38:29;;;;;;;45.45;40.88;;;6.90;99.90;;;;;;4997052;28;20144;-75
2022/12/28 05:40:55;;;;;;;101.30;93.13;;;7.00;99.90;;;;;;5012125;28;20125;-75
2022/12/28 05:43:20;;;;;;;60.27;55.03;;;7.10;99.90;;;;;;5010546;28;20053;-75
2022/12/28 05:45:46;;;;;;;135.53;124.07;;;7.10;99.90;;;;;;5012497;28;20045;-75
2022/12/28 05:48:12;;;;;;;42.93;38.50;;;7.10;99.90;;;;;;4995158;28;20065;-75
2022/12/28 05:50:37;;;;;;;52.53;47.97;;;7.20;99.90;;;;;;5011111;28;20050;-75
2022/12/28 05:53:03;;;;;;;57.53;52.67;;;7.20;99.90;;;;;;5010754;28;20496;-75
2022/12/28 05:55:29;;;;;;;61.10;55.93;;;7.30;99.90;;;;;;5011148;28;20061;-75
2022/12/28 05:57:55;;;;;;;94.20;85.97;;;7.40;99.90;;;;;;4991534;28;20073;-75
2022/12/28 06:00:21;;;;;;;52.87;48.37;;;7.40;99.90;;;;;;4991630;28;20073;-75
2022/12/28 06:02:46;;;;;;;195.23;179.77;;;7.60;99.90;;;;;;4991029;28;20058;-76
2022/12/28 06:05:13;;;;;;;76.33;70.97;;;7.60;99.90;;;;;;4990343;28;20485;-75
2022/12/28 06:07:38;;;;;;;63.77;58.53;;;7.50;99.90;;;;;;4975339;28;20100;-75
2022/12/28 06:10:05;;;;;;;124.20;114.50;;;7.60;99.90;;;;;;5010002;28;20140;-75
2022/12/28 06:12:30;;;;;;;90.83;84.53;;;7.60;99.90;;;;;;4989925;28;20478;-75
2022/12/28 06:14:56;;;;;;;85.03;79.47;;;7.60;99.90;;;;;;4977911;28;20161;-75
2022/12/28 06:17:22;;;;;;;113.77;105.37;;;7.70;99.90;;;;;;4956693;28;20484;-75
2022/12/28 06:19:47;;;;;;;48.23;44.17;;;7.70;99.90;;;;;;4973893;28;20194;-76
2022/12/28 06:22:13;;;;;;;84.60;78.77;;;7.70;99.90;;;;;;4987849;28;20082;-75
2022/12/28 06:24:38;;;;;;;138.67;128.27;;;7.80;99.90;;;;;;4992471;28;20407;-76
2022/12/28 06:27:04;;;;;;;164.27;151.60;;;7.60;99.90;;;;;;4974518;28;20098;-76
2022/12/28 06:29:30;;;;;;;39.93;36.80;;;7.80;99.90;;;;;;4985266;28;20050;-75
2022/12/28 06:31:59;;;;;;;64.33;59.70;;;7.80;99.90;;;;;;4970934;28;20070;-76
2022/12/28 06:34:26;;;;;;;46.73;43.10;;;7.70;99.90;;;;;;4970499;28;20045;-75
2022/12/28 06:36:52;;;;;;;141.33;131.10;;;7.70;99.90;;;;;;4957678;28;20042;-75
2022/12/28 06:39:17;;;;;;;68.03;63.10;;;7.80;99.90;;;;;;4969834;28;20046;-75
2022/12/28 06:41:43;;;;;;;43.50;40.10;;;7.70;99.90;;;;;;4970070;28;20058;-75
2022/12/28 06:44:11;;;;;;;83.57;77.13;;;7.80;99.90;;;;;;4984016;28;20057;-76
2022/12/28 06:46:37;;;;;;;75.80;69.90;;;7.80;99.90;;;;;;4956794;28;20046;-75
2022/12/28 06:49:03;;;;;;;84.77;79.13;;;7.80;99.90;;;;;;4968042;28;20640;-75
2022/12/28 06:51:34;;;;;;;102.07;95.77;;;7.90;99.90;;;;;;4985542;28;20141;-76
2022/12/28 06:54:00;;;;;;;;;;;7.80;99.90;;;;;;4978458;28;20046;-75
2022/12/28 06:56:31;;;;;;;82.47;76.23;;;7.80;99.90;;;;;;4973686;28;20291;-75
2022/12/28 06:58:57;;;;;;;115.10;106.25;;;7.90;99.90;;;;;;4981714;28;20038;-76
2022/12/28 07:01:25;;;;;;;47.30;43.63;;;7.90;99.90;;;;;;4985287;28;20058;-75
2022/12/28 07:03:53;;;;;;;78.87;72.87;;;7.80;99.90;;;;;;4986581;28;20043;-76
2022/12/28 07:06:21;;;;;;;37.60;34.17;;;7.90;99.90;;;;;;4977326;28;20038;-76
2022/12/28 07:08:48;;;;;;;146.77;136.77;;;7.90;99.90;;;;;;4981598;28;20039;-75
2022/12/28 07:11:17;;;;;;;61.77;57.27;;;7.90;99.90;;;;;;4986624;28;20115;-76
2022/12/28 07:13:42;;;;;;;110.53;103.30;;;7.80;99.90;;;;;;4986384;28;20054;-75
2022/12/28 07:16:20;;;;;;;89.50;83.67;;;7.80;99.90;;;;;;4981218;28;20532;-78
2022/12/28 07:18:46;;;;;;;137.27;128.70;;;7.80;99.90;;;;;;4981632;28;20133;-76
2022/12/28 07:21:18;;;;;;;59.80;55.60;;;7.90;99.90;;;;;;4986026;28;20133;-76
2022/12/28 07:23:43;;;;;;;47.50;43.80;;;8.00;99.90;;;;;;4986132;28;20056;-75
2022/12/28 07:26:10;;;;;;;203.27;187.03;;;7.90;99.90;;;;;;4981241;28;20046;-77
2022/12/28 07:28:37;;;;;;;131.60;123.17;;;8.00;99.90;;;;;;4977365;28;20050;-74
2022/12/28 07:31:07;;;;;;;129.03;118.50;;;8.10;99.90;;;;;;4986081;28;20046;-75
2022/12/28 07:33:34;;;;;;;60.67;55.87;;;8.00;99.90;;;;;;4985970;28;20506;-76
2022/12/28 07:36:00;;;;;;;73.20;67.10;;;7.90;99.90;;;;;;4987390;28;20047;-75
2022/12/28 07:38:26;;;;;;;109.43;100.70;;;7.90;99.90;;;;;;4972111;28;20050;-75
2022/12/28 07:40:52;;;;;;;51.10;46.53;;;8.00;99.90;;;;;;4986608;28;20838;-74
2022/12/28 07:43:17;;;;;;;52.70;47.83;;;8.10;99.90;;;;;;4985829;28;20054;-75
2022/12/28 07:45:43;;;;;;;72.80;66.37;;;8.00;99.90;;;;;;4986746;28;20050;-75
2022/12/28 07:48:09;;;;;;;49.47;44.67;;;8.10;99.90;;;;;;4969059;28;20206;-75
2022/12/28 07:50:34;;;;;;;67.93;62.23;;;8.10;99.90;;;;;;4986600;28;20141;-75
2022/12/28 07:53:00;;;;;;;59.10;54.10;;;8.20;99.90;;;;;;4985992;28;20050;-76
2022/12/28 07:55:30;;;;;;;69.57;64.00;;;8.20;99.90;;;;;;4953938;28;20484;-75
2022/12/28 07:57:55;;;;;;;86.50;79.70;;;8.20;99.90;;;;;;4968666;28;20408;-76
2022/12/28 08:00:21;;;;;;;51.93;47.50;;;8.20;99.90;;;;;;4984351;28;20052;-75
2022/12/28 08:02:47;;;;;;;75.53;69.63;;;8.20;99.90;;;;;;4983783;28;20038;-75
2022/12/28 08:05:12;;;;;;;40.53;36.63;;;8.30;99.90;;;;;;4969072;28;20054;-75
2022/12/28 08:07:38;;;;;;;64.67;60.17;;;8.30;99.90;;;;;;4969275;28;20073;-75
2022/12/28 08:10:04;;;;;;;65.93;61.07;;;8.20;99.90;;;;;;4985735;28;20088;-76
2022/12/28 08:12:30;;;;;;;116.63;109.33;;;8.30;99.90;;;;;;4984626;28;20415;-75
2022/12/28 08:14:59;;;;;;;76.57;70.83;;;8.30;99.90;;;;;;4984678;28;20054;-74
2022/12/28 08:17:25;;;;;;;52.43;48.10;;;8.30;99.90;;;;;;4967931;28;20521;-75
2022/12/28 08:19:51;;;;;;;89.53;83.13;;;8.20;99.90;;;;;;4986016;28;20078;-75
2022/12/28 08:22:16;;;;;;;69.17;64.17;;;8.20;99.90;;;;;;4986018;28;20492;-75
2022/12/28 08:24:42;;;;;;;59.03;54.53;;;8.20;99.90;;;;;;4986055;28;20052;-74
2022/12/28 08:27:08;;;;;;;73.37;67.33;;;8.10;99.90;;;;;;4970869;28;20042;-75
2022/12/28 08:29:33;;;;;;;62.93;58.33;;;8.20;99.90;;;;;;4971817;28;20458;-75
2022/12/28 08:31:59;;;;;;;293.60;266.43;;;8.20;99.90;;;;;;4986735;28;20382;-75
2022/12/28 08:34:25;;;;;;;74.37;68.47;;;8.20;99.90;;;;;;4983677;28;20129;-76
2022/12/28 08:36:53;;;;;;;67.53;62.40;;;8.20;99.90;;;;;;4969759;28;20497;-76
2022/12/28 08:39:18;;;;;;;40.57;36.27;;;8.20;99.90;;;;;;4984830;28;20057;-76
2022/12/28 08:41:44;;;;;;;47.07;43.13;;;8.20;99.90;;;;;;4986310;28;20046;-75
2022/12/28 08:44:10;;;;;;;56.00;51.13;;;8.20;99.90;;;;;;4985134;28;20140;-76
2022/12/28 08:46:36;;;;;;;54.13;49.93;;;8.20;99.90;;;;;;4972092;28;21012;-75
2022/12/28 08:49:04;;;;;;;140.40;129.60;;;8.30;99.90;;;;;;4982783;28;20757;-76
2022/12/28 08:51:33;;;;;;;51.13;47.33;;;8.20;99.90;;;;;;4987318;28;20485;-75
2022/12/28 08:54:00;;;;;;;73.50;68.67;;;8.20;99.90;;;;;;4986389;28;20042;-75
2022/12/28 08:56:28;;;;;;;63.60;59.17;;;8.20;99.90;;;;;;4970637;28;20657;-75
2022/12/28 08:58:54;;;;;;;39.63;36.23;;;8.20;99.90;;;;;;4964360;28;20062;-75
2022/12/28 09:01:25;;;;;;;45.97;42.63;;;8.30;99.90;;;;;;5000910;28;20062;-75
2022/12/28 09:03:53;;;;;;;44.72;41.08;;;8.30;99.90;;;;;;4982542;28;20053;-75
2022/12/28 09:06:47;;;;;;;47.23;43.80;;;8.10;99.90;;;;;;4960350;28;20129;-75
2022/12/28 09:09:16;;;;;;;56.53;53.03;;;8.30;99.90;;;;;;4974733;28;20566;-75
2022/12/28 09:11:42;;;;;;;55.83;52.40;;;8.30;99.90;;;;;;4981713;28;20047;-75
2022/12/28 09:14:10;;;;;;;90.57;85.30;;;8.20;99.90;;;;;;4986735;28;20133;-75
2022/12/28 09:16:37;;;;;;;40.13;37.53;;;8.30;99.90;;;;;;4975318;28;20503;-78
2022/12/28 09:19:06;;;;;;;58.67;55.40;;;8.30;99.90;;;;;;4983758;28;20065;-76
2022/12/28 09:21:34;;;;;;;41.30;38.80;;;8.30;99.90;;;;;;4987471;28;20058;-76
2022/12/28 09:24:00;;;;;;;38.67;36.27;;;8.30;99.90;;;;;;4982977;28;20062;-76
2022/12/28 09:26:27;;;;;;;49.60;46.80;;;8.30;99.90;;;;;;4961664;28;20511;-76
2022/12/28 09:28:55;;;;;;;54.63;51.53;;;8.30;99.90;;;;;;4966571;28;20050;-75
2022/12/28 09:31:24;;;;;;;46.17;43.47;;;8.30;99.90;;;;;;4972896;28;20055;-75
2022/12/28 09:34:01;;;;;;;37.37;34.93;;;8.30;99.90;;;;;;4970738;28;20055;-75
2022/12/28 09:36:35;;;;;;;54.90;51.70;;;8.20;99.90;;;;;;4968922;28;20557;-75
2022/12/28 09:39:07;;;;;;;50.97;47.70;;;8.40;99.90;;;;;;4984921;28;20504;-75
2022/12/28 09:41:46;;;;;;;43.37;40.63;;;8.40;99.90;;;;;;4987514;28;20120;-75
2022/12/28 09:44:13;;;;;;;44.97;42.13;;;8.40;99.90;;;;;;4985157;28;20097;-76
2022/12/28 09:46:44;;;;;;;63.23;59.40;;;8.40;99.90;;;;;;4971072;28;20056;-75
2022/12/28 09:49:15;;;;;;;52.00;48.90;;;8.50;99.90;;;;;;4968673;28;20082;-76
2022/12/28 09:51:59;;;;;;;33.55;31.08;;;8.40;99.90;;;;;;4970586;28;20039;-76
2022/12/28 09:54:25;;;;;;;36.37;34.00;;;8.50;99.90;;;;;;4976774;28;20077;-76
2022/12/28 09:56:52;;;;;;;30.93;28.90;;;8.50;99.90;;;;;;4973758;28;20349;-76
2022/12/28 09:59:24;;;;;;;38.87;36.40;;;8.50;99.90;;;;;;4982347;28;20058;-76
2022/12/28 10:02:02;;;;;;;48.83;45.83;;;8.50;99.90;;;;;;4986604;28;20062;-76
2022/12/28 10:04:28;;;;;;;44.53;41.67;;;8.40;99.90;;;;;;4985256;28;20053;-77
2022/12/28 10:06:56;;;;;;;45.83;43.13;;;8.50;99.90;;;;;;4973389;28;20130;-76
2022/12/28 10:09:30;;;;;;;59.93;56.43;;;8.40;99.90;;;;;;4964946;28;20058;-76
2022/12/28 10:11:57;;;;;;;46.40;43.87;;;8.40;99.90;;;;;;4975958;28;20058;-76
2022/12/28 10:14:26;;;;;;;39.43;37.23;;;8.40;99.90;;;;;;4967997;28;20039;-75
2022/12/28 10:16:52;;;;;;;47.23;44.50;;;8.50;99.90;;;;;;4971023;28;20121;-76
2022/12/28 10:19:22;;;;;;;35.97;33.83;;;8.40;99.90;;;;;;4982549;28;20078;-75
2022/12/28 10:21:57;;;;;;;47.53;44.50;;;8.40;99.90;;;;;;4986958;28;20046;-76
2022/12/28 10:24:23;;;;;;;34.20;32.10;;;8.40;99.90;;;;;;4983306;28;20047;-76
2022/12/28 10:26:49;;;;;;;52.20;49.27;;;8.30;99.90;;;;;;4955836;28;20125;-75
2022/12/28 10:29:21;;;;;;;33.10;30.97;;;8.30;99.90;;;;;;4981522;28;20125;-77
2022/12/28 10:32:00;;;;;;;31.43;29.40;;;8.20;99.90;;;;;;4970369;28;20358;-75
2022/12/28 10:34:27;;;;;;;51.83;48.87;;;8.30;99.90;;;;;;4968776;28;20062;-76
2022/12/28 10:36:54;;;;;;;59.23;55.90;;;8.30;99.90;;;;;;4964491;28;20051;-75
2022/12/28 10:39:28;;;;;;;30.60;28.77;;;8.20;99.90;;;;;;4971451;28;20042;-76
2022/12/28 10:41:57;;;;;;;63.80;60.20;;;8.20;99.90;;;;;;4969608;28;20050;-76
2022/12/28 10:44:26;;;;;;;45.43;42.60;;;8.20;99.90;;;;;;4968914;28;20051;-75
2022/12/28 10:47:14;;;;;;;51.53;48.30;;;8.30;99.90;;;;;;4942986;28;20054;-75
2022/12/28 10:49:50;;;;;;;52.17;48.57;;;8.30;99.90;;;;;;4969236;28;20047;-76
2022/12/28 10:52:17;;;;;;;49.17;45.27;;;8.20;99.90;;;;;;4968433;28;20054;-76
2022/12/28 10:54:44;;;;;;;43.40;39.60;;;8.30;99.90;;;;;;4980543;28;20046;-76
2022/12/28 10:57:31;;;;;;;47.53;43.47;;;8.30;99.90;;;;;;4968171;28;20057;-75
2022/12/28 11:00:19;;;;;;;56.23;51.73;;;8.40;99.90;;;;;;4968793;28;20065;-75
2022/12/28 11:02:45;;;;;;;40.93;37.13;;;8.40;99.90;;;;;;4967447;28;20078;-76
2022/12/28 11:05:23;;;;;;;62.60;58.00;;;8.40;99.90;;;;;;4969140;28;20101;-76
2022/12/28 11:07:49;;;;;;;42.33;38.37;;;8.40;99.90;;;;;;4965002;28;20068;-75
2022/12/28 11:10:29;;;;;;;80.03;74.73;;;8.50;99.90;;;;;;4982048;28;20505;-76
2022/12/28 11:13:00;;;;;;;57.40;53.33;;;8.60;99.90;;;;;;4986006;28;20038;-76
2022/12/28 11:15:31;;;;;;;57.20;52.97;;;8.50;99.90;;;;;;4972792;28;20189;-76
2022/12/28 11:17:59;;;;;;;89.47;83.75;;;8.60;99.90;;;;;;4952432;28;20130;-75
2022/12/28 11:20:37;;;;;;;46.90;43.43;;;8.60;99.90;;;;;;4983793;28;20050;-78
2022/12/28 11:23:07;;;;;;;44.07;40.87;;;8.70;99.90;;;;;;4982834;28;20185;-75
2022/12/28 11:25:35;;;;;;;46.03;42.87;;;8.70;99.90;;;;;;4975524;28;20126;-75
2022/12/28 11:28:12;;;;;;;66.23;62.13;;;8.60;99.90;;;;;;4951088;28;20134;-76
2022/12/28 11:30:38;;;;;;;113.07;105.73;;;8.70;99.90;;;;;;4967553;28;20061;-75
2022/12/28 11:33:08;;;;;;;51.87;48.73;;;8.60;99.90;;;;;;4985442;28;20042;-77
2022/12/28 11:35:37;;;;;;;40.40;37.92;;;8.70;99.90;;;;;;4969766;28;20050;-76
2022/12/28 11:38:05;;;;;;;46.40;43.57;;;8.70;99.90;;;;;;4971548;28;20404;-75
2022/12/28 11:40:43;;;;;;;34.13;32.03;;;8.70;99.90;;;;;;4987395;28;20096;-75
2022/12/28 11:43:27;;;;;;;55.63;52.37;;;8.70;99.90;;;;;;4984061;28;20129;-77
2022/12/28 11:46:00;;;;;;;29.80;27.70;;;8.70;99.90;;;;;;4985307;28;20106;-76
2022/12/28 11:48:41;;;;;;;49.67;46.77;;;8.80;99.90;;;;;;4946960;28;20093;-76
2022/12/28 11:51:22;;;;;;;37.47;35.22;;;8.70;99.90;;;;;;4976445;28;20501;-75
2022/12/28 11:53:51;;;;;;;33.30;31.20;;;8.70;99.90;;;;;;4968390;28;20105;-76
2022/12/28 11:56:41;;;;;;;39.43;36.97;;;8.70;99.90;;;;;;4975417;28;20651;-76
2022/12/28 11:59:25;;;;;;;36.70;34.33;;;8.60;99.90;;;;;;4965638;28;20125;-76
2022/12/28 12:01:56;;;;;;;53.40;50.37;;;8.60;99.90;;;;;;4972980;28;20169;-76
2022/12/28 12:04:34;;;;;;;41.60;39.10;;;8.70;99.90;;;;;;4974992;28;20065;-76
2022/12/28 12:07:00;;;;;;;52.00;49.00;;;8.60;99.90;;;;;;4957052;28;20049;-75
2022/12/28 12:09:42;;;;;;;34.73;32.47;;;8.70;99.90;;;;;;4989525;28;20305;-75
2022/12/28 12:12:14;;;;;;;30.37;28.50;;;8.60;99.90;;;;;;4982994;28;20057;-76
2022/12/28 12:15:02;;;;;;;56.33;52.80;;;8.70;99.90;;;;;;4976257;28;20054;-75
2022/12/28 12:17:37;;;;;;;36.47;34.13;;;8.60;99.90;;;;;;4951888;28;20490;-76
2022/12/28 12:20:41;;;;;;;39.50;37.00;;;8.70;99.90;;;;;;4978957;28;20061;-77
2022/12/28 12:23:22;;;;;;;37.93;35.50;;;8.60;99.90;;;;;;4946295;28;20051;-76
2022/12/28 12:25:53;;;;;;;35.70;33.42;;;8.60;99.90;;;;;;4965572;28;20125;-76
2022/12/28 12:28:45;;;;;;;38.17;35.78;;;8.60;99.90;;;;;;4968902;28;20108;-76
2022/12/28 12:31:21;;;;;;;33.73;31.40;;;8.70;99.90;;;;;;4972934;28;20095;-75
2022/12/28 12:33:50;;;;;;;42.27;39.70;;;8.60;99.90;;;;;;4978874;28;20053;-75
2022/12/28 12:36:15;;;;;;;59.37;55.67;;;8.70;99.90;;;;;;4972839;28;20125;-75
2022/12/28 12:39:17;;;;;;;45.43;42.57;;;8.60;99.90;;;;;;4984537;28;20062;-76
2022/12/28 12:42:10;;;;;;;59.53;55.60;;;8.60;99.90;;;;;;4971850;28;20050;-76
2022/12/28 12:45:07;;;;;;;73.20;68.97;;;8.50;99.90;;;;;;4984273;28;20081;-77
2022/12/28 12:47:51;;;;;;;43.17;40.57;;;8.70;99.90;;;;;;4976194;28;20476;-75
2022/12/28 12:50:28;;;;;;;43.90;41.23;;;8.60;99.90;;;;;;5010670;28;20085;-76
2022/12/28 12:52:59;;;;;;;36.27;34.20;;;8.60;99.90;;;;;;4991221;28;20100;-76
2022/12/28 12:55:43;;;;;;;;;;;8.50;99.90;;;;;;5002555;28;20081;-75
2022/12/28 12:58:47;;;;;;;29.80;27.70;;;8.60;99.90;;;;;;4986931;28;20410;-75
2022/12/28 13:01:28;;;;;;;48.67;45.73;;;8.60;99.90;;;;;;4982679;28;20054;-75
2022/12/28 13:03:56;;;;;;;45.57;43.03;;;8.60;99.90;;;;;;4974860;28;20066;-75
2022/12/28 13:06:27;;;;;;;25.30;23.77;;;8.50;99.90;;;;;;4969708;28;20050;-75
2022/12/28 13:08:57;;;;;;;36.33;34.05;;;8.50;99.90;;;;;;4977689;28;20051;-76
2022/12/28 13:11:23;;;;;;;69.80;66.07;;;8.50;99.90;;;;;;4972519;28;20512;-75
2022/12/28 13:13:51;;;;;;;42.23;39.73;;;8.60;99.90;;;;;;4984209;28;20051;-76